Milton Mills, New Hampshire
Current Conditions -  °F | °C
As of 9:55 AM on Thursday 23 Oct 2014 (Local Time) from KSFM Reporting Station
Overcast Overcast  
Wind Chill: 41°   Ceiling: 1000
Heat Index: 48°   Visibility: 5mi
Dew Point: 43°   Wind: 22mph
Humidity: 82%   Direction: 30°NNE
Pressure: 29.74"   Gusts: 36mph
Location:  43.5°N, 70.96°W
Report Text: KSFM 231355Z AUTO 03019G31KT 5SM BKN010 OVC017 09/06 A2974 RMK AO1 P0008
Loading
Personal Weather Stations






























Interactive Weather Map
Tropical Storm Tracking
New forecast layout! Learn more

10-Day Weather Forecast

Advertisements
Track Severe Weather on mobile